Portada
METAR-TAF:

METAR-TAF

Aeroports :

Emmen, Suïssa

latitud: 47-05-32N, longitud: 8-18-16E, altitud: 426 m

Observació

L'informe es va fer fa 26 minuts, a les 05:20 UTC
Vent 9 kt del Sud-Oest
Temperatura 3°C
Humitat 75%
Pressió 1004 hPa
Visibilitat 10 km o més
Núvols disperses a una alçada de 3800 ft
Cel ennuvolat a una alçada de 5000 ft
Cel cobert a una alçada de 6000 ft
xàfecs de pluja, neu

METAR: LSME 260520Z AUTO 23009KT 9999NDV -SHRASN SCT038 BKN050 OVC060 03/M01 Q1004 RMK

Hora: 06:46 (05:46 UTC)


TAF: manca

Observacions i pronòstics meteorològics de més de 4000 aeroports (METAR i TAF).

Les estacions disponibles són els punts grocs i vermells al mapa.

Posi el ratolí al punt desitjat per veure el nom de l'estació.

Feu clic per veure les observacions i els pronòstics meteorològics.

Per canviar el mapa: feu clic els botons verds amb una creu de color negre per apropar; al botó verd amb un guió per allunyar la imatge; o en les fletxes verdes per a mapes adjacents.


METAR-TAF: